sensor_id;sensor_type;location;lat;lon;timestamp;pressure;altitude;pressure_sealevel;temperature
12061;BMP180;6091;51.432;6.880;2023-04-26T00:02:23;101118.00;;;23.20
12061;BMP180;6091;51.432;6.880;2023-04-26T00:04:53;101121.00;;;23.30
12061;BMP180;6091;51.432;6.880;2023-04-26T00:07:23;101125.00;;;23.20
12061;BMP180;6091;51.432;6.880;2023-04-26T00:09:51;101125.00;;;23.20
12061;BMP180;6091;51.432;6.880;2023-04-26T00:12:19;101109.00;;;23.20
12061;BMP180;6091;51.432;6.880;2023-04-26T00:14:46;101126.00;;;23.20
12061;BMP180;6091;51.432;6.880;2023-04-26T00:17:13;101121.00;;;23.20
12061;BMP180;6091;51.432;6.880;2023-04-26T00:19:40;101112.00;;;23.20
12061;BMP180;6091;51.432;6.880;2023-04-26T00:22:07;101116.00;;;23.20
12061;BMP180;6091;51.432;6.880;2023-04-26T00:24:35;101114.00;;;23.20
12061;BMP180;6091;51.432;6.880;2023-04-26T00:27:02;101119.00;;;23.10
12061;BMP180;6091;51.432;6.880;2023-04-26T00:29:35;101106.00;;;23.10
12061;BMP180;6091;51.432;6.880;2023-04-26T00:32:04;101108.00;;;23.10
12061;BMP180;6091;51.432;6.880;2023-04-26T00:34:36;101106.00;;;23.10
12061;BMP180;6091;51.432;6.880;2023-04-26T00:37:04;101116.00;;;23.10
12061;BMP180;6091;51.432;6.880;2023-04-26T00:39:31;101114.00;;;23.10
12061;BMP180;6091;51.432;6.880;2023-04-26T00:41:58;101114.00;;;23.10
12061;BMP180;6091;51.432;6.880;2023-04-26T00:44:25;101106.00;;;23.10
12061;BMP180;6091;51.432;6.880;2023-04-26T00:46:53;101103.00;;;23.10
12061;BMP180;6091;51.432;6.880;2023-04-26T00:49:23;101100.00;;;23.10
12061;BMP180;6091;51.432;6.880;2023-04-26T00:51:52;101100.00;;;23.10
12061;BMP180;6091;51.432;6.880;2023-04-26T00:54:20;101099.00;;;23.00
12061;BMP180;6091;51.432;6.880;2023-04-26T00:56:47;101102.00;;;23.00
12061;BMP180;6091;51.432;6.880;2023-04-26T00:59:19;101096.00;;;23.00
12061;BMP180;6091;51.432;6.880;2023-04-26T01:01:47;101099.00;;;23.00
12061;BMP180;6091;51.432;6.880;2023-04-26T01:04:15;101101.00;;;23.00
12061;BMP180;6091;51.432;6.880;2023-04-26T01:06:46;101093.00;;;23.00
12061;BMP180;6091;51.432;6.880;2023-04-26T01:09:13;101095.00;;;23.00
12061;BMP180;6091;51.432;6.880;2023-04-26T01:11:43;101095.00;;;23.00
12061;BMP180;6091;51.432;6.880;2023-04-26T01:14:10;101103.00;;;23.00
12061;BMP180;6091;51.432;6.880;2023-04-26T01:16:38;101104.00;;;23.00
12061;BMP180;6091;51.432;6.880;2023-04-26T01:19:10;101116.00;;;22.90
12061;BMP180;6091;51.432;6.880;2023-04-26T01:21:39;101112.00;;;22.90
12061;BMP180;6091;51.432;6.880;2023-04-26T01:24:10;101104.00;;;22.90
12061;BMP180;6091;51.432;6.880;2023-04-26T01:26:41;101112.00;;;22.90
12061;BMP180;6091;51.432;6.880;2023-04-26T01:29:16;101113.00;;;22.90
12061;BMP180;6091;51.432;6.880;2023-04-26T01:31:45;101119.00;;;22.90
12061;BMP180;6091;51.432;6.880;2023-04-26T01:34:13;101118.00;;;22.90
12061;BMP180;6091;51.432;6.880;2023-04-26T01:36:40;101114.00;;;22.90
12061;BMP180;6091;51.432;6.880;2023-04-26T01:39:08;101117.00;;;22.90
12061;BMP180;6091;51.432;6.880;2023-04-26T01:41:36;101107.00;;;22.90
12061;BMP180;6091;51.432;6.880;2023-04-26T01:44:03;101114.00;;;22.90
12061;BMP180;6091;51.432;6.880;2023-04-26T01:46:30;101112.00;;;22.80
12061;BMP180;6091;51.432;6.880;2023-04-26T01:48:58;101112.00;;;22.80
12061;BMP180;6091;51.432;6.880;2023-04-26T01:51:25;101110.00;;;22.80
12061;BMP180;6091;51.432;6.880;2023-04-26T01:53:52;101109.00;;;22.80
12061;BMP180;6091;51.432;6.880;2023-04-26T01:56:22;101108.00;;;22.80
12061;BMP180;6091;51.432;6.880;2023-04-26T01:58:49;101106.00;;;22.80
12061;BMP180;6091;51.432;6.880;2023-04-26T02:01:16;101110.00;;;22.80
12061;BMP180;6091;51.432;6.880;2023-04-26T02:03:43;101113.00;;;22.80
12061;BMP180;6091;51.432;6.880;2023-04-26T02:06:11;101115.00;;;22.80
12061;BMP180;6091;51.432;6.880;2023-04-26T02:08:38;101114.00;;;22.70
12061;BMP180;6091;51.432;6.880;2023-04-26T02:11:05;101113.00;;;22.80
12061;BMP180;6091;51.432;6.880;2023-04-26T02:13:32;101114.00;;;22.70
12061;BMP180;6091;51.432;6.880;2023-04-26T02:15:59;101116.00;;;22.70
12061;BMP180;6091;51.432;6.880;2023-04-26T02:18:26;101113.00;;;22.70
12061;BMP180;6091;51.432;6.880;2023-04-26T02:20:53;101114.00;;;22.70
12061;BMP180;6091;51.432;6.880;2023-04-26T02:23:20;101113.00;;;22.70
12061;BMP180;6091;51.432;6.880;2023-04-26T02:25:47;101113.00;;;22.70
12061;BMP180;6091;51.432;6.880;2023-04-26T02:28:15;101115.00;;;22.70
12061;BMP180;6091;51.432;6.880;2023-04-26T02:30:42;101122.00;;;22.70
12061;BMP180;6091;51.432;6.880;2023-04-26T02:33:10;101121.00;;;22.70
12061;BMP180;6091;51.432;6.880;2023-04-26T02:35:37;101119.00;;;22.70
12061;BMP180;6091;51.432;6.880;2023-04-26T02:38:04;101113.00;;;22.60
12061;BMP180;6091;51.432;6.880;2023-04-26T02:40:31;101115.00;;;22.60
12061;BMP180;6091;51.432;6.880;2023-04-26T02:42:58;101109.00;;;22.60
12061;BMP180;6091;51.432;6.880;2023-04-26T02:45:25;101112.00;;;22.60
12061;BMP180;6091;51.432;6.880;2023-04-26T02:47:53;101109.00;;;22.60
12061;BMP180;6091;51.432;6.880;2023-04-26T02:50:20;101102.00;;;22.60
12061;BMP180;6091;51.432;6.880;2023-04-26T02:52:47;101104.00;;;22.60
12061;BMP180;6091;51.432;6.880;2023-04-26T02:55:14;101106.00;;;22.60
12061;BMP180;6091;51.432;6.880;2023-04-26T02:57:41;101108.00;;;22.60
12061;BMP180;6091;51.432;6.880;2023-04-26T03:00:09;101101.00;;;22.60
12061;BMP180;6091;51.432;6.880;2023-04-26T03:02:37;101095.00;;;22.60
12061;BMP180;6091;51.432;6.880;2023-04-26T03:05:04;101102.00;;;22.60
12061;BMP180;6091;51.432;6.880;2023-04-26T03:07:32;101102.00;;;22.60
12061;BMP180;6091;51.432;6.880;2023-04-26T03:10:00;101096.00;;;22.50
12061;BMP180;6091;51.432;6.880;2023-04-26T03:12:27;101096.00;;;22.50
12061;BMP180;6091;51.432;6.880;2023-04-26T03:14:54;101099.00;;;22.50
12061;BMP180;6091;51.432;6.880;2023-04-26T03:17:21;101099.00;;;22.50
12061;BMP180;6091;51.432;6.880;2023-04-26T03:19:49;101090.00;;;22.50
12061;BMP180;6091;51.432;6.880;2023-04-26T03:22:16;101099.00;;;22.50
12061;BMP180;6091;51.432;6.880;2023-04-26T03:24:44;101091.00;;;22.50
12061;BMP180;6091;51.432;6.880;2023-04-26T03:27:12;101095.00;;;22.50
12061;BMP180;6091;51.432;6.880;2023-04-26T03:29:40;101088.00;;;22.50
12061;BMP180;6091;51.432;6.880;2023-04-26T03:32:12;101091.00;;;22.50
12061;BMP180;6091;51.432;6.880;2023-04-26T03:34:42;101094.00;;;22.50
12061;BMP180;6091;51.432;6.880;2023-04-26T03:37:09;101089.00;;;22.50
12061;BMP180;6091;51.432;6.880;2023-04-26T03:39:36;101085.00;;;22.50
12061;BMP180;6091;51.432;6.880;2023-04-26T03:42:04;101073.00;;;22.40
12061;BMP180;6091;51.432;6.880;2023-04-26T03:44:31;101088.00;;;22.40
12061;BMP180;6091;51.432;6.880;2023-04-26T03:46:58;101082.00;;;22.40
12061;BMP180;6091;51.432;6.880;2023-04-26T03:49:25;101077.00;;;22.40
12061;BMP180;6091;51.432;6.880;2023-04-26T03:51:52;101085.00;;;22.40
12061;BMP180;6091;51.432;6.880;2023-04-26T03:54:19;101082.00;;;22.40
12061;BMP180;6091;51.432;6.880;2023-04-26T03:56:46;101079.00;;;22.40
12061;BMP180;6091;51.432;6.880;2023-04-26T03:59:14;101076.00;;;22.40
12061;BMP180;6091;51.432;6.880;2023-04-26T04:01:41;101084.00;;;22.40
12061;BMP180;6091;51.432;6.880;2023-04-26T04:04:08;101084.00;;;22.40
12061;BMP180;6091;51.432;6.880;2023-04-26T04:06:36;101086.00;;;22.40
12061;BMP180;6091;51.432;6.880;2023-04-26T04:09:04;101082.00;;;22.40
12061;BMP180;6091;51.432;6.880;2023-04-26T04:11:34;101083.00;;;22.40
12061;BMP180;6091;51.432;6.880;2023-04-26T04:14:01;101077.00;;;22.30
12061;BMP180;6091;51.432;6.880;2023-04-26T04:16:28;101088.00;;;22.30
12061;BMP180;6091;51.432;6.880;2023-04-26T04:18:56;101082.00;;;22.30
12061;BMP180;6091;51.432;6.880;2023-04-26T04:21:26;101089.00;;;22.30
12061;BMP180;6091;51.432;6.880;2023-04-26T04:23:53;101085.00;;;22.30
12061;BMP180;6091;51.432;6.880;2023-04-26T04:26:20;101087.00;;;22.30
12061;BMP180;6091;51.432;6.880;2023-04-26T04:28:47;101091.00;;;22.30
12061;BMP180;6091;51.432;6.880;2023-04-26T04:31:14;101091.00;;;22.30
12061;BMP180;6091;51.432;6.880;2023-04-26T04:33:41;101099.00;;;22.30
12061;BMP180;6091;51.432;6.880;2023-04-26T04:36:09;101093.00;;;22.30
12061;BMP180;6091;51.432;6.880;2023-04-26T04:38:36;101095.00;;;22.30
12061;BMP180;6091;51.432;6.880;2023-04-26T04:41:03;101095.00;;;22.30
12061;BMP180;6091;51.432;6.880;2023-04-26T04:43:30;101099.00;;;22.30
12061;BMP180;6091;51.432;6.880;2023-04-26T04:45:57;101096.00;;;22.30
12061;BMP180;6091;51.432;6.880;2023-04-26T04:48:24;101096.00;;;22.30
12061;BMP180;6091;51.432;6.880;2023-04-26T04:50:51;101099.00;;;22.30
12061;BMP180;6091;51.432;6.880;2023-04-26T04:53:18;101110.00;;;22.30
12061;BMP180;6091;51.432;6.880;2023-04-26T04:55:45;101111.00;;;22.30
12061;BMP180;6091;51.432;6.880;2023-04-26T04:58:13;101113.00;;;22.30
12061;BMP180;6091;51.432;6.880;2023-04-26T05:00:40;101102.00;;;22.20
12061;BMP180;6091;51.432;6.880;2023-04-26T05:03:07;101120.00;;;22.30
12061;BMP180;6091;51.432;6.880;2023-04-26T05:05:35;101117.00;;;22.20
12061;BMP180;6091;51.432;6.880;2023-04-26T05:08:03;101121.00;;;22.20
12061;BMP180;6091;51.432;6.880;2023-04-26T05:10:30;101120.00;;;22.20
12061;BMP180;6091;51.432;6.880;2023-04-26T05:12:57;101125.00;;;22.20
12061;BMP180;6091;51.432;6.880;2023-04-26T05:15:24;101121.00;;;22.20
12061;BMP180;6091;51.432;6.880;2023-04-26T05:17:51;101121.00;;;22.20
12061;BMP180;6091;51.432;6.880;2023-04-26T05:20:18;101121.00;;;22.20
12061;BMP180;6091;51.432;6.880;2023-04-26T05:22:46;101126.00;;;22.20
12061;BMP180;6091;51.432;6.880;2023-04-26T05:25:13;101129.00;;;22.20
12061;BMP180;6091;51.432;6.880;2023-04-26T05:27:40;101141.00;;;22.20
12061;BMP180;6091;51.432;6.880;2023-04-26T05:30:08;101131.00;;;22.20
12061;BMP180;6091;51.432;6.880;2023-04-26T05:32:35;101138.00;;;22.20
12061;BMP180;6091;51.432;6.880;2023-04-26T05:35:02;101136.00;;;22.20
12061;BMP180;6091;51.432;6.880;2023-04-26T05:37:30;101127.00;;;22.30
12061;BMP180;6091;51.432;6.880;2023-04-26T05:39:58;101140.00;;;22.30
12061;BMP180;6091;51.432;6.880;2023-04-26T05:42:24;101146.00;;;22.40
12061;BMP180;6091;51.432;6.880;2023-04-26T05:44:57;101158.00;;;22.60
12061;BMP180;6091;51.432;6.880;2023-04-26T05:47:25;101150.00;;;22.70
12061;BMP180;6091;51.432;6.880;2023-04-26T05:49:52;101157.00;;;22.90
12061;BMP180;6091;51.432;6.880;2023-04-26T05:52:19;101158.00;;;23.00
12061;BMP180;6091;51.432;6.880;2023-04-26T05:54:46;101159.00;;;23.20
12061;BMP180;6091;51.432;6.880;2023-04-26T05:57:13;101159.00;;;23.40
12061;BMP180;6091;51.432;6.880;2023-04-26T05:59:40;101156.00;;;23.60
12061;BMP180;6091;51.432;6.880;2023-04-26T06:02:07;101164.00;;;23.80
12061;BMP180;6091;51.432;6.880;2023-04-26T06:04:34;101163.00;;;23.90
12061;BMP180;6091;51.432;6.880;2023-04-26T06:07:02;101163.00;;;24.10
12061;BMP180;6091;51.432;6.880;2023-04-26T06:09:30;101167.00;;;24.20
12061;BMP180;6091;51.432;6.880;2023-04-26T06:11:58;101165.00;;;24.30
12061;BMP180;6091;51.432;6.880;2023-04-26T06:14:26;101171.00;;;24.50
12061;BMP180;6091;51.432;6.880;2023-04-26T06:16:57;101171.00;;;24.70
12061;BMP180;6091;51.432;6.880;2023-04-26T06:19:24;101174.00;;;24.80
12061;BMP180;6091;51.432;6.880;2023-04-26T06:21:51;101182.00;;;24.90
12061;BMP180;6091;51.432;6.880;2023-04-26T06:24:22;101175.00;;;25.00
12061;BMP180;6091;51.432;6.880;2023-04-26T06:26:51;101182.00;;;25.40
12061;BMP180;6091;51.432;6.880;2023-04-26T06:29:20;101189.00;;;25.30
12061;BMP180;6091;51.432;6.880;2023-04-26T06:31:47;101185.00;;;25.40
12061;BMP180;6091;51.432;6.880;2023-04-26T06:34:14;101195.00;;;25.50
12061;BMP180;6091;51.432;6.880;2023-04-26T06:36:41;101193.00;;;25.50
12061;BMP180;6091;51.432;6.880;2023-04-26T06:39:08;101205.00;;;25.90
12061;BMP180;6091;51.432;6.880;2023-04-26T06:41:35;101202.00;;;25.80
12061;BMP180;6091;51.432;6.880;2023-04-26T06:44:03;101205.00;;;25.90
12061;BMP180;6091;51.432;6.880;2023-04-26T06:46:30;101200.00;;;25.90
12061;BMP180;6091;51.432;6.880;2023-04-26T06:48:57;101197.00;;;26.00
12061;BMP180;6091;51.432;6.880;2023-04-26T06:51:24;101195.00;;;26.00
12061;BMP180;6091;51.432;6.880;2023-04-26T06:53:51;101189.00;;;26.10
12061;BMP180;6091;51.432;6.880;2023-04-26T06:56:19;101197.00;;;26.10
12061;BMP180;6091;51.432;6.880;2023-04-26T06:59:02;101189.00;;;26.20
12061;BMP180;6091;51.432;6.880;2023-04-26T07:01:31;101187.00;;;26.20
12061;BMP180;6091;51.432;6.880;2023-04-26T07:04:03;101190.00;;;26.20
12061;BMP180;6091;51.432;6.880;2023-04-26T07:06:30;101193.00;;;26.20
12061;BMP180;6091;51.432;6.880;2023-04-26T07:08:59;101198.00;;;26.30
12061;BMP180;6091;51.432;6.880;2023-04-26T07:11:30;101190.00;;;26.30
12061;BMP180;6091;51.432;6.880;2023-04-26T07:13:58;101193.00;;;26.30
12061;BMP180;6091;51.432;6.880;2023-04-26T07:16:26;101190.00;;;26.30
12061;BMP180;6091;51.432;6.880;2023-04-26T07:18:53;101194.00;;;26.30
12061;BMP180;6091;51.432;6.880;2023-04-26T07:21:24;101198.00;;;26.30
12061;BMP180;6091;51.432;6.880;2023-04-26T07:23:56;101191.00;;;26.30
12061;BMP180;6091;51.432;6.880;2023-04-26T07:26:25;101185.00;;;26.30
12061;BMP180;6091;51.432;6.880;2023-04-26T07:28:53;101186.00;;;26.30
12061;BMP180;6091;51.432;6.880;2023-04-26T07:31:21;101193.00;;;26.40
12061;BMP180;6091;51.432;6.880;2023-04-26T07:33:48;101183.00;;;26.30
12061;BMP180;6091;51.432;6.880;2023-04-26T07:36:15;101189.00;;;26.30
12061;BMP180;6091;51.432;6.880;2023-04-26T07:38:43;101186.00;;;26.50
12061;BMP180;6091;51.432;6.880;2023-04-26T07:41:10;101188.00;;;26.40
12061;BMP180;6091;51.432;6.880;2023-04-26T07:43:39;101189.00;;;26.70
12061;BMP180;6091;51.432;6.880;2023-04-26T07:46:06;101183.00;;;26.50
12061;BMP180;6091;51.432;6.880;2023-04-26T07:48:33;101177.00;;;26.40
12061;BMP180;6091;51.432;6.880;2023-04-26T07:51:10;101192.00;;;26.40
12061;BMP180;6091;51.432;6.880;2023-04-26T07:53:39;101191.00;;;26.40
12061;BMP180;6091;51.432;6.880;2023-04-26T07:56:07;101186.00;;;26.80
12061;BMP180;6091;51.432;6.880;2023-04-26T07:58:39;101179.00;;;26.60
12061;BMP180;6091;51.432;6.880;2023-04-26T08:01:07;101189.00;;;26.60
12061;BMP180;6091;51.432;6.880;2023-04-26T08:03:40;101181.00;;;26.80
12061;BMP180;6091;51.432;6.880;2023-04-26T08:06:11;101191.00;;;26.70
12061;BMP180;6091;51.432;6.880;2023-04-26T08:08:39;101186.00;;;26.70
12061;BMP180;6091;51.432;6.880;2023-04-26T08:11:11;101184.00;;;26.60
12061;BMP180;6091;51.432;6.880;2023-04-26T08:13:38;101181.00;;;26.70
12061;BMP180;6091;51.432;6.880;2023-04-26T08:16:05;101188.00;;;26.70
12061;BMP180;6091;51.432;6.880;2023-04-26T08:18:33;101183.00;;;26.70
12061;BMP180;6091;51.432;6.880;2023-04-26T08:21:00;101182.00;;;26.70
12061;BMP180;6091;51.432;6.880;2023-04-26T08:23:34;101183.00;;;26.80
12061;BMP180;6091;51.432;6.880;2023-04-26T08:26:02;101185.00;;;26.80
12061;BMP180;6091;51.432;6.880;2023-04-26T08:28:30;101186.00;;;26.80
12061;BMP180;6091;51.432;6.880;2023-04-26T08:30:58;101186.00;;;26.80
12061;BMP180;6091;51.432;6.880;2023-04-26T08:33:25;101183.00;;;26.80
12061;BMP180;6091;51.432;6.880;2023-04-26T08:35:53;101183.00;;;26.90
12061;BMP180;6091;51.432;6.880;2023-04-26T08:38:20;101183.00;;;26.90
12061;BMP180;6091;51.432;6.880;2023-04-26T08:40:50;101185.00;;;26.90
12061;BMP180;6091;51.432;6.880;2023-04-26T08:43:19;101193.00;;;26.90
12061;BMP180;6091;51.432;6.880;2023-04-26T08:45:47;101194.00;;;26.90
12061;BMP180;6091;51.432;6.880;2023-04-26T08:48:15;101187.00;;;27.00
12061;BMP180;6091;51.432;6.880;2023-04-26T08:50:45;101190.00;;;27.00
12061;BMP180;6091;51.432;6.880;2023-04-26T08:53:16;101186.00;;;27.00
12061;BMP180;6091;51.432;6.880;2023-04-26T08:55:48;101190.00;;;27.00
12061;BMP180;6091;51.432;6.880;2023-04-26T08:58:20;101193.00;;;27.00
12061;BMP180;6091;51.432;6.880;2023-04-26T09:00:49;101184.00;;;26.90
12061;BMP180;6091;51.432;6.880;2023-04-26T09:03:16;101182.00;;;27.00
12061;BMP180;6091;51.432;6.880;2023-04-26T09:05:44;101194.00;;;26.90
12061;BMP180;6091;51.432;6.880;2023-04-26T09:08:18;101196.00;;;26.90
12061;BMP180;6091;51.432;6.880;2023-04-26T09:10:46;101197.00;;;26.90
12061;BMP180;6091;51.432;6.880;2023-04-26T09:13:13;101192.00;;;27.00
12061;BMP180;6091;51.432;6.880;2023-04-26T09:15:40;101195.00;;;26.90
12061;BMP180;6091;51.432;6.880;2023-04-26T09:18:20;101188.00;;;26.90
12061;BMP180;6091;51.432;6.880;2023-04-26T09:21:06;101191.00;;;26.90
12061;BMP180;6091;51.432;6.880;2023-04-26T09:23:34;101181.00;;;26.90
12061;BMP180;6091;51.432;6.880;2023-04-26T09:26:18;101196.00;;;26.90
12061;BMP180;6091;51.432;6.880;2023-04-26T09:28:46;101185.00;;;26.80
12061;BMP180;6091;51.432;6.880;2023-04-26T09:31:37;101197.00;;;26.80
12061;BMP180;6091;51.432;6.880;2023-04-26T09:34:05;101192.00;;;26.80
12061;BMP180;6091;51.432;6.880;2023-04-26T09:36:54;101195.00;;;26.80
12061;BMP180;6091;51.432;6.880;2023-04-26T09:39:34;101195.00;;;26.80
12061;BMP180;6091;51.432;6.880;2023-04-26T09:42:09;101187.00;;;26.80
12061;BMP180;6091;51.432;6.880;2023-04-26T09:44:38;101183.00;;;26.80
12061;BMP180;6091;51.432;6.880;2023-04-26T09:47:10;101182.00;;;26.80
12061;BMP180;6091;51.432;6.880;2023-04-26T09:49:49;101174.00;;;26.90
12061;BMP180;6091;51.432;6.880;2023-04-26T09:52:21;101174.00;;;26.90
12061;BMP180;6091;51.432;6.880;2023-04-26T09:54:51;101173.00;;;26.80
12061;BMP180;6091;51.432;6.880;2023-04-26T09:57:20;101169.00;;;26.90
12061;BMP180;6091;51.432;6.880;2023-04-26T09:59:53;101175.00;;;27.00
12061;BMP180;6091;51.432;6.880;2023-04-26T10:02:26;101169.00;;;27.00
12061;BMP180;6091;51.432;6.880;2023-04-26T10:04:56;101166.00;;;27.10
12061;BMP180;6091;51.432;6.880;2023-04-26T10:07:27;101160.00;;;27.10
12061;BMP180;6091;51.432;6.880;2023-04-26T10:09:57;101173.00;;;27.20
12061;BMP180;6091;51.432;6.880;2023-04-26T10:12:25;101173.00;;;27.20
12061;BMP180;6091;51.432;6.880;2023-04-26T10:14:53;101176.00;;;27.20
12061;BMP180;6091;51.432;6.880;2023-04-26T10:17:21;101185.00;;;27.20
12061;BMP180;6091;51.432;6.880;2023-04-26T10:19:55;101180.00;;;27.20
12061;BMP180;6091;51.432;6.880;2023-04-26T10:22:28;101177.00;;;27.20
12061;BMP180;6091;51.432;6.880;2023-04-26T10:24:57;101181.00;;;27.20
12061;BMP180;6091;51.432;6.880;2023-04-26T10:30:16;101174.00;;;27.10
12061;BMP180;6091;51.432;6.880;2023-04-26T10:35:31;101159.00;;;27.10
12061;BMP180;6091;51.432;6.880;2023-04-26T10:40:34;101162.00;;;27.10
12061;BMP180;6091;51.432;6.880;2023-04-26T10:45:48;101139.00;;;27.10
12061;BMP180;6091;51.432;6.880;2023-04-26T10:48:29;101162.00;;;27.20
12061;BMP180;6091;51.432;6.880;2023-04-26T10:59:26;101164.00;;;27.00
12061;BMP180;6091;51.432;6.880;2023-04-26T11:02:14;101161.00;;;27.00
12061;BMP180;6091;51.432;6.880;2023-04-26T11:04:52;101150.00;;;27.00
12061;BMP180;6091;51.432;6.880;2023-04-26T11:07:36;101150.00;;;27.00
12061;BMP180;6091;51.432;6.880;2023-04-26T11:10:08;101152.00;;;27.00
12061;BMP180;6091;51.432;6.880;2023-04-26T11:12:41;101151.00;;;27.00
12061;BMP180;6091;51.432;6.880;2023-04-26T11:15:11;101151.00;;;27.00
12061;BMP180;6091;51.432;6.880;2023-04-26T11:17:39;101151.00;;;27.00
12061;BMP180;6091;51.432;6.880;2023-04-26T11:20:16;101148.00;;;27.00
12061;BMP180;6091;51.432;6.880;2023-04-26T11:22:44;101153.00;;;27.00
12061;BMP180;6091;51.432;6.880;2023-04-26T11:25:16;101152.00;;;27.00
12061;BMP180;6091;51.432;6.880;2023-04-26T11:27:45;101150.00;;;27.00
12061;BMP180;6091;51.432;6.880;2023-04-26T11:30:17;101153.00;;;27.00
12061;BMP180;6091;51.432;6.880;2023-04-26T11:32:51;101146.00;;;27.00
12061;BMP180;6091;51.432;6.880;2023-04-26T11:35:22;101143.00;;;27.00
12061;BMP180;6091;51.432;6.880;2023-04-26T11:37:51;101148.00;;;27.10
12061;BMP180;6091;51.432;6.880;2023-04-26T11:40:19;101144.00;;;27.00
12061;BMP180;6091;51.432;6.880;2023-04-26T11:42:48;101139.00;;;27.10
12061;BMP180;6091;51.432;6.880;2023-04-26T11:45:18;101130.00;;;27.10
12061;BMP180;6091;51.432;6.880;2023-04-26T11:47:47;101135.00;;;27.10
12061;BMP180;6091;51.432;6.880;2023-04-26T11:50:16;101127.00;;;27.10
12061;BMP180;6091;51.432;6.880;2023-04-26T11:52:47;101138.00;;;27.10
12061;BMP180;6091;51.432;6.880;2023-04-26T11:55:16;101126.00;;;27.10
12061;BMP180;6091;51.432;6.880;2023-04-26T11:57:44;101129.00;;;27.20
12061;BMP180;6091;51.432;6.880;2023-04-26T12:00:13;101134.00;;;27.40
12061;BMP180;6091;51.432;6.880;2023-04-26T12:02:46;101133.00;;;27.60
12061;BMP180;6091;51.432;6.880;2023-04-26T12:05:27;101135.00;;;27.70
12061;BMP180;6091;51.432;6.880;2023-04-26T12:08:00;101140.00;;;27.80
12061;BMP180;6091;51.432;6.880;2023-04-26T12:10:37;101138.00;;;27.90
12061;BMP180;6091;51.432;6.880;2023-04-26T12:13:05;101139.00;;;28.00
12061;BMP180;6091;51.432;6.880;2023-04-26T12:15:33;101137.00;;;28.00
12061;BMP180;6091;51.432;6.880;2023-04-26T12:18:09;101140.00;;;28.10
12061;BMP180;6091;51.432;6.880;2023-04-26T12:20:40;101144.00;;;28.20
12061;BMP180;6091;51.432;6.880;2023-04-26T12:23:12;101139.00;;;28.30
12061;BMP180;6091;51.432;6.880;2023-04-26T12:25:57;101146.00;;;28.40
12061;BMP180;6091;51.432;6.880;2023-04-26T12:28:28;101143.00;;;28.40
12061;BMP180;6091;51.432;6.880;2023-04-26T12:30:56;101134.00;;;28.50
12061;BMP180;6091;51.432;6.880;2023-04-26T12:33:24;101149.00;;;28.50
12061;BMP180;6091;51.432;6.880;2023-04-26T12:35:54;101145.00;;;28.50
12061;BMP180;6091;51.432;6.880;2023-04-26T12:38:23;101135.00;;;28.50
12061;BMP180;6091;51.432;6.880;2023-04-26T12:40:52;101146.00;;;28.50
12061;BMP180;6091;51.432;6.880;2023-04-26T12:43:23;101109.00;;;28.50
12061;BMP180;6091;51.432;6.880;2023-04-26T12:45:52;101137.00;;;28.50
12061;BMP180;6091;51.432;6.880;2023-04-26T12:48:21;101137.00;;;28.60
12061;BMP180;6091;51.432;6.880;2023-04-26T12:50:49;101145.00;;;28.60
12061;BMP180;6091;51.432;6.880;2023-04-26T12:53:19;101140.00;;;28.60
12061;BMP180;6091;51.432;6.880;2023-04-26T12:55:47;101138.00;;;28.60
12061;BMP180;6091;51.432;6.880;2023-04-26T12:58:16;101133.00;;;28.60
12061;BMP180;6091;51.432;6.880;2023-04-26T13:00:45;101142.00;;;28.80
12061;BMP180;6091;51.432;6.880;2023-04-26T13:03:14;101140.00;;;28.90
12061;BMP180;6091;51.432;6.880;2023-04-26T13:05:47;101136.00;;;29.10
12061;BMP180;6091;51.432;6.880;2023-04-26T13:08:15;101140.00;;;29.30
12061;BMP180;6091;51.432;6.880;2023-04-26T13:10:43;101143.00;;;29.50
12061;BMP180;6091;51.432;6.880;2023-04-26T13:13:18;101142.00;;;29.60
12061;BMP180;6091;51.432;6.880;2023-04-26T13:15:52;101146.00;;;29.60
12061;BMP180;6091;51.432;6.880;2023-04-26T13:18:22;101145.00;;;29.50
12061;BMP180;6091;51.432;6.880;2023-04-26T13:20:52;101147.00;;;29.50
12061;BMP180;6091;51.432;6.880;2023-04-26T13:23:24;101154.00;;;29.70
12061;BMP180;6091;51.432;6.880;2023-04-26T13:25:52;101149.00;;;29.40
12061;BMP180;6091;51.432;6.880;2023-04-26T13:28:20;101147.00;;;29.30
12061;BMP180;6091;51.432;6.880;2023-04-26T13:30:50;101138.00;;;29.20
12061;BMP180;6091;51.432;6.880;2023-04-26T13:33:19;101147.00;;;29.10
12061;BMP180;6091;51.432;6.880;2023-04-26T13:35:47;101140.00;;;29.00
12061;BMP180;6091;51.432;6.880;2023-04-26T13:38:17;101140.00;;;28.90
12061;BMP180;6091;51.432;6.880;2023-04-26T13:40:45;101138.00;;;28.80
12061;BMP180;6091;51.432;6.880;2023-04-26T13:43:13;101144.00;;;28.80
12061;BMP180;6091;51.432;6.880;2023-04-26T13:45:44;101138.00;;;28.70
12061;BMP180;6091;51.432;6.880;2023-04-26T13:48:12;101141.00;;;28.70
12061;BMP180;6091;51.432;6.880;2023-04-26T13:50:41;101132.00;;;28.70
12061;BMP180;6091;51.432;6.880;2023-04-26T13:53:10;101132.00;;;28.70
12061;BMP180;6091;51.432;6.880;2023-04-26T13:55:38;101134.00;;;29.00
12061;BMP180;6091;51.432;6.880;2023-04-26T13:58:06;101127.00;;;28.80
12061;BMP180;6091;51.432;6.880;2023-04-26T14:00:35;101128.00;;;28.80
12061;BMP180;6091;51.432;6.880;2023-04-26T14:03:05;101132.00;;;28.70
12061;BMP180;6091;51.432;6.880;2023-04-26T14:05:34;101135.00;;;28.70
12061;BMP180;6091;51.432;6.880;2023-04-26T14:08:04;101128.00;;;28.60
12061;BMP180;6091;51.432;6.880;2023-04-26T14:10:32;101137.00;;;28.60
12061;BMP180;6091;51.432;6.880;2023-04-26T14:13:02;101133.00;;;28.50
12061;BMP180;6091;51.432;6.880;2023-04-26T14:15:30;101133.00;;;28.50
12061;BMP180;6091;51.432;6.880;2023-04-26T14:17:57;101140.00;;;28.40
12061;BMP180;6091;51.432;6.880;2023-04-26T14:20:25;101133.00;;;28.40
12061;BMP180;6091;51.432;6.880;2023-04-26T14:22:53;101142.00;;;28.30
12061;BMP180;6091;51.432;6.880;2023-04-26T14:25:21;101140.00;;;28.30
12061;BMP180;6091;51.432;6.880;2023-04-26T14:27:49;101136.00;;;28.30
12061;BMP180;6091;51.432;6.880;2023-04-26T14:30:19;101140.00;;;28.20
12061;BMP180;6091;51.432;6.880;2023-04-26T14:32:47;101142.00;;;28.20
12061;BMP180;6091;51.432;6.880;2023-04-26T14:35:15;101144.00;;;28.10
12061;BMP180;6091;51.432;6.880;2023-04-26T14:37:44;101136.00;;;28.10
12061;BMP180;6091;51.432;6.880;2023-04-26T14:40:12;101122.00;;;28.10